sensor_id;sensor_type;location;lat;lon;timestamp;pressure;altitude;pressure_sealevel;temperature;humidity
59971;BME280;45825;45.434;9.116;2022-07-23T00:00:15;100189.97;;;30.48;37.83
59971;BME280;45825;45.434;9.116;2022-07-23T00:02:40;100192.94;;;30.40;37.67
59971;BME280;45825;45.434;9.116;2022-07-23T00:05:06;100190.06;;;30.28;37.91
59971;BME280;45825;45.434;9.116;2022-07-23T00:07:31;100195.78;;;30.20;38.11
59971;BME280;45825;45.434;9.116;2022-07-23T00:09:56;100181.94;;;30.28;37.79
59971;BME280;45825;45.434;9.116;2022-07-23T00:12:22;100182.38;;;30.25;37.96
59971;BME280;45825;45.434;9.116;2022-07-23T00:14:47;100180.09;;;30.22;37.91
59971;BME280;45825;45.434;9.116;2022-07-23T00:17:12;100174.44;;;30.23;38.13
59971;BME280;45825;45.434;9.116;2022-07-23T00:19:38;100175.97;;;30.13;38.23
59971;BME280;45825;45.434;9.116;2022-07-23T00:22:03;100158.50;;;30.08;38.11
59971;BME280;45825;45.434;9.116;2022-07-23T00:24:29;100154.28;;;30.13;37.94
59971;BME280;45825;45.434;9.116;2022-07-23T00:26:54;100143.34;;;30.26;37.84
59971;BME280;45825;45.434;9.116;2022-07-23T00:29:19;100140.88;;;30.18;37.88
59971;BME280;45825;45.434;9.116;2022-07-23T00:31:44;100141.97;;;30.10;37.76
59971;BME280;45825;45.434;9.116;2022-07-23T00:34:10;100129.03;;;30.12;38.14
59971;BME280;45825;45.434;9.116;2022-07-23T00:36:35;100124.50;;;29.99;38.54
59971;BME280;45825;45.434;9.116;2022-07-23T00:39:01;100113.72;;;29.86;38.99
59971;BME280;45825;45.434;9.116;2022-07-23T00:41:26;100120.22;;;29.78;39.25
59971;BME280;45825;45.434;9.116;2022-07-23T00:43:51;100111.44;;;29.82;39.34
59971;BME280;45825;45.434;9.116;2022-07-23T00:46:20;100108.13;;;29.80;39.66
59971;BME280;45825;45.434;9.116;2022-07-23T00:48:46;100119.78;;;29.88;39.65
59971;BME280;45825;45.434;9.116;2022-07-23T00:51:11;100116.25;;;29.80;39.81
59971;BME280;45825;45.434;9.116;2022-07-23T00:53:36;100114.81;;;29.78;40.05
59971;BME280;45825;45.434;9.116;2022-07-23T00:56:02;100122.25;;;29.89;40.34
59971;BME280;45825;45.434;9.116;2022-07-23T00:58:27;100129.84;;;29.74;40.24
59971;BME280;45825;45.434;9.116;2022-07-23T01:00:53;100141.94;;;29.71;40.34
59971;BME280;45825;45.434;9.116;2022-07-23T01:03:18;100139.84;;;29.73;40.59
59971;BME280;45825;45.434;9.116;2022-07-23T01:05:44;100147.72;;;29.81;40.41
59971;BME280;45825;45.434;9.116;2022-07-23T01:08:10;100154.41;;;29.79;40.54
59971;BME280;45825;45.434;9.116;2022-07-23T01:10:38;100158.41;;;29.69;40.80
59971;BME280;45825;45.434;9.116;2022-07-23T01:13:06;100155.53;;;29.64;40.84
59971;BME280;45825;45.434;9.116;2022-07-23T01:15:33;100157.13;;;29.79;40.32
59971;BME280;45825;45.434;9.116;2022-07-23T01:17:59;100151.97;;;29.64;40.48
59971;BME280;45825;45.434;9.116;2022-07-23T01:20:25;100150.13;;;29.58;40.23
59971;BME280;45825;45.434;9.116;2022-07-23T01:22:51;100165.94;;;29.67;40.60
59971;BME280;45825;45.434;9.116;2022-07-23T01:25:17;100168.22;;;29.64;40.51
59971;BME280;45825;45.434;9.116;2022-07-23T01:27:43;100169.53;;;29.54;40.52
59971;BME280;45825;45.434;9.116;2022-07-23T01:30:09;100172.25;;;29.54;40.60
59971;BME280;45825;45.434;9.116;2022-07-23T01:32:34;100170.13;;;29.63;40.49
59971;BME280;45825;45.434;9.116;2022-07-23T01:34:59;100172.22;;;29.61;40.41
59971;BME280;45825;45.434;9.116;2022-07-23T01:37:25;100172.22;;;29.48;40.61
59971;BME280;45825;45.434;9.116;2022-07-23T01:39:50;100173.69;;;29.50;40.55
59971;BME280;45825;45.434;9.116;2022-07-23T01:42:15;100174.31;;;29.52;40.34
59971;BME280;45825;45.434;9.116;2022-07-23T01:44:41;100179.75;;;29.59;40.20
59971;BME280;45825;45.434;9.116;2022-07-23T01:47:06;100182.25;;;29.47;40.96
59971;BME280;45825;45.434;9.116;2022-07-23T01:49:31;100182.25;;;29.54;40.59
59971;BME280;45825;45.434;9.116;2022-07-23T01:51:57;100180.56;;;29.53;40.72
59971;BME280;45825;45.434;9.116;2022-07-23T01:54:29;100181.41;;;29.33;40.96
59971;BME280;45825;45.434;9.116;2022-07-23T01:56:56;100181.41;;;29.33;40.96
59971;BME280;45825;45.434;9.116;2022-07-23T01:59:21;100179.75;;;29.39;40.91
59971;BME280;45825;45.434;9.116;2022-07-23T02:01:47;100183.91;;;29.48;40.58
59971;BME280;45825;45.434;9.116;2022-07-23T02:04:14;100183.50;;;29.45;40.34
59971;BME280;45825;45.434;9.116;2022-07-23T02:06:39;100189.78;;;29.45;40.21
59971;BME280;45825;45.434;9.116;2022-07-23T02:09:04;100186.63;;;29.41;40.48
59971;BME280;45825;45.434;9.116;2022-07-23T02:11:30;100190.16;;;29.42;40.39
59971;BME280;45825;45.434;9.116;2022-07-23T02:16:28;100185.16;;;29.39;40.73
59971;BME280;45825;45.434;9.116;2022-07-23T02:18:54;100183.06;;;29.41;40.70
59971;BME280;45825;45.434;9.116;2022-07-23T02:21:19;100181.84;;;29.44;40.50
59971;BME280;45825;45.434;9.116;2022-07-23T02:23:45;100190.59;;;29.46;40.56
59971;BME280;45825;45.434;9.116;2022-07-23T02:26:10;100185.78;;;29.61;40.28
59971;BME280;45825;45.434;9.116;2022-07-23T02:28:35;100191.00;;;29.36;40.83
59971;BME280;45825;45.434;9.116;2022-07-23T02:31:01;100182.06;;;29.22;41.41
59971;BME280;45825;45.434;9.116;2022-07-23T02:33:26;100179.78;;;29.25;41.26
59971;BME280;45825;45.434;9.116;2022-07-23T02:35:52;100177.91;;;29.33;41.03
59971;BME280;45825;45.434;9.116;2022-07-23T02:38:17;100183.50;;;29.38;41.01
59971;BME280;45825;45.434;9.116;2022-07-23T02:40:42;100179.56;;;29.27;41.24
59971;BME280;45825;45.434;9.116;2022-07-23T02:43:08;100181.84;;;29.30;40.91
59971;BME280;45825;45.434;9.116;2022-07-23T02:45:33;100189.13;;;29.36;41.09
59971;BME280;45825;45.434;9.116;2022-07-23T02:47:58;100187.06;;;29.45;40.84
59971;BME280;45825;45.434;9.116;2022-07-23T02:50:23;100190.16;;;29.42;40.41
59971;BME280;45825;45.434;9.116;2022-07-23T02:52:49;100189.97;;;29.30;40.92
59971;BME280;45825;45.434;9.116;2022-07-23T02:55:14;100192.66;;;29.37;40.95
59971;BME280;45825;45.434;9.116;2022-07-23T02:57:40;100196.63;;;29.34;41.04
59971;BME280;45825;45.434;9.116;2022-07-23T03:00:06;100199.34;;;29.48;41.10
59971;BME280;45825;45.434;9.116;2022-07-23T03:02:32;100200.81;;;29.30;41.51
59971;BME280;45825;45.434;9.116;2022-07-23T03:04:57;100211.44;;;29.32;41.61
59971;BME280;45825;45.434;9.116;2022-07-23T03:07:23;100207.69;;;29.39;41.02
59971;BME280;45825;45.434;9.116;2022-07-23T03:09:48;100213.09;;;29.33;40.80
59971;BME280;45825;45.434;9.116;2022-07-23T03:12:13;100205.38;;;29.30;40.64
59971;BME280;45825;45.434;9.116;2022-07-23T03:14:39;100205.19;;;29.24;40.84
59971;BME280;45825;45.434;9.116;2022-07-23T03:17:04;100209.78;;;29.24;40.72
59971;BME280;45825;45.434;9.116;2022-07-23T03:19:30;100202.91;;;29.28;40.85
59971;BME280;45825;45.434;9.116;2022-07-23T03:21:55;100203.53;;;29.30;40.75
59971;BME280;45825;45.434;9.116;2022-07-23T03:24:20;100202.47;;;29.31;40.47
59971;BME280;45825;45.434;9.116;2022-07-23T03:26:48;100197.50;;;29.21;40.62
59971;BME280;45825;45.434;9.116;2022-07-23T03:29:14;100205.22;;;29.18;40.69
59971;BME280;45825;45.434;9.116;2022-07-23T03:31:39;100209.34;;;29.20;40.78
59971;BME280;45825;45.434;9.116;2022-07-23T03:34:04;100205.63;;;29.21;40.84
59971;BME280;45825;45.434;9.116;2022-07-23T03:36:30;100217.47;;;29.13;41.21
59971;BME280;45825;45.434;9.116;2022-07-23T03:38:55;100216.44;;;29.08;41.11
59971;BME280;45825;45.434;9.116;2022-07-23T03:41:20;100213.31;;;29.24;40.76
59971;BME280;45825;45.434;9.116;2022-07-23T03:43:46;100216.25;;;29.09;41.05
59971;BME280;45825;45.434;9.116;2022-07-23T03:46:11;100210.63;;;29.04;41.23
59971;BME280;45825;45.434;9.116;2022-07-23T03:48:37;100219.16;;;29.01;41.02
59971;BME280;45825;45.434;9.116;2022-07-23T03:51:02;100211.03;;;29.08;41.29
59971;BME280;45825;45.434;9.116;2022-07-23T03:53:28;100210.00;;;29.09;40.82
59971;BME280;45825;45.434;9.116;2022-07-23T03:55:53;100212.69;;;29.09;40.71
59971;BME280;45825;45.434;9.116;2022-07-23T03:58:19;100204.59;;;29.16;40.75
59971;BME280;45825;45.434;9.116;2022-07-23T04:00:44;100200.81;;;29.23;40.39
59971;BME280;45825;45.434;9.116;2022-07-23T04:03:12;100207.91;;;29.18;40.43
59971;BME280;45825;45.434;9.116;2022-07-23T04:05:37;100206.03;;;29.18;40.92
59971;BME280;45825;45.434;9.116;2022-07-23T04:08:03;100208.13;;;29.16;41.35
59971;BME280;45825;45.434;9.116;2022-07-23T04:10:28;100205.59;;;29.14;41.57
59971;BME280;45825;45.434;9.116;2022-07-23T04:12:53;100206.03;;;29.11;41.55
59971;BME280;45825;45.434;9.116;2022-07-23T04:15:19;100206.47;;;29.08;41.89
59971;BME280;45825;45.434;9.116;2022-07-23T04:17:44;100211.03;;;29.08;42.04
59971;BME280;45825;45.434;9.116;2022-07-23T04:20:11;100211.03;;;28.88;42.47
59971;BME280;45825;45.434;9.116;2022-07-23T04:22:36;100205.81;;;28.86;42.74
59971;BME280;45825;45.434;9.116;2022-07-23T04:25:02;100212.69;;;28.95;42.37
59971;BME280;45825;45.434;9.116;2022-07-23T04:27:27;100206.03;;;28.98;41.83
59971;BME280;45825;45.434;9.116;2022-07-23T04:29:53;100203.53;;;28.90;42.06
59971;BME280;45825;45.434;9.116;2022-07-23T04:32:18;100215.16;;;28.77;42.32
59971;BME280;45825;45.434;9.116;2022-07-23T04:34:44;100208.50;;;28.72;42.04
59971;BME280;45825;45.434;9.116;2022-07-23T04:37:09;100211.00;;;28.81;41.85
59971;BME280;45825;45.434;9.116;2022-07-23T04:39:34;100214.78;;;28.86;41.68
59971;BME280;45825;45.434;9.116;2022-07-23T04:42:00;100212.94;;;28.94;42.05
59971;BME280;45825;45.434;9.116;2022-07-23T04:44:25;100206.66;;;29.00;41.97
59971;BME280;45825;45.434;9.116;2022-07-23T04:46:51;100207.72;;;28.85;42.52
59971;BME280;45825;45.434;9.116;2022-07-23T04:49:17;100204.16;;;28.92;42.67
59971;BME280;45825;45.434;9.116;2022-07-23T04:51:42;100202.50;;;28.97;42.63
59971;BME280;45825;45.434;9.116;2022-07-23T04:54:07;100202.72;;;29.03;42.48
59971;BME280;45825;45.434;9.116;2022-07-23T04:56:32;100206.47;;;29.08;42.21
59971;BME280;45825;45.434;9.116;2022-07-23T04:58:58;100200.00;;;29.09;42.33
59971;BME280;45825;45.434;9.116;2022-07-23T05:01:23;100205.00;;;28.99;42.88
59971;BME280;45825;45.434;9.116;2022-07-23T05:03:48;100196.25;;;29.04;42.76
59971;BME280;45825;45.434;9.116;2022-07-23T05:06:14;100207.06;;;29.10;42.42
59971;BME280;45825;45.434;9.116;2022-07-23T05:08:40;100200.44;;;29.06;42.35
59971;BME280;45825;45.434;9.116;2022-07-23T05:11:08;100206.66;;;29.07;42.89
59971;BME280;45825;45.434;9.116;2022-07-23T05:13:33;100200.19;;;29.14;42.76
59971;BME280;45825;45.434;9.116;2022-07-23T05:15:59;100199.78;;;29.24;42.21
59971;BME280;45825;45.434;9.116;2022-07-23T05:18:24;100206.25;;;29.23;42.31
59971;BME280;45825;45.434;9.116;2022-07-23T05:20:50;100208.34;;;29.21;42.54
59971;BME280;45825;45.434;9.116;2022-07-23T05:23:15;100215.41;;;29.22;42.50
59971;BME280;45825;45.434;9.116;2022-07-23T05:25:41;100219.34;;;29.26;42.60
59971;BME280;45825;45.434;9.116;2022-07-23T05:28:06;100216.03;;;29.24;42.25
59971;BME280;45825;45.434;9.116;2022-07-23T05:30:32;100217.06;;;29.10;42.05
59971;BME280;45825;45.434;9.116;2022-07-23T05:32:57;100218.97;;;29.03;42.47
59971;BME280;45825;45.434;9.116;2022-07-23T05:35:23;100215.41;;;29.02;42.35
59971;BME280;45825;45.434;9.116;2022-07-23T05:37:48;100221.03;;;29.07;42.44
59971;BME280;45825;45.434;9.116;2022-07-23T05:40:14;100221.88;;;29.08;42.34
59971;BME280;45825;45.434;9.116;2022-07-23T05:42:40;100237.47;;;29.12;42.59
59971;BME280;45825;45.434;9.116;2022-07-23T05:45:07;100230.84;;;29.02;42.82
59971;BME280;45825;45.434;9.116;2022-07-23T05:47:47;100242.91;;;29.06;42.36
59971;BME280;45825;45.434;9.116;2022-07-23T05:50:14;100243.31;;;29.16;42.48
59971;BME280;45825;45.434;9.116;2022-07-23T05:52:40;100250.41;;;29.10;42.43
59971;BME280;45825;45.434;9.116;2022-07-23T05:55:07;100250.63;;;29.16;42.37
59971;BME280;45825;45.434;9.116;2022-07-23T05:57:32;100260.59;;;29.22;42.17
59971;BME280;45825;45.434;9.116;2022-07-23T05:59:58;100259.97;;;29.33;41.84
59971;BME280;45825;45.434;9.116;2022-07-23T06:02:23;100258.09;;;29.40;41.27
59971;BME280;45825;45.434;9.116;2022-07-23T06:04:48;100256.44;;;29.39;40.61
59971;BME280;45825;45.434;9.116;2022-07-23T06:07:14;100264.78;;;29.38;40.77
59971;BME280;45825;45.434;9.116;2022-07-23T06:09:39;100264.56;;;29.39;40.83
59971;BME280;45825;45.434;9.116;2022-07-23T06:12:05;100264.56;;;29.53;40.70
59971;BME280;45825;45.434;9.116;2022-07-23T06:14:30;100267.06;;;29.61;40.13
59971;BME280;45825;45.434;9.116;2022-07-23T06:16:55;100269.97;;;29.66;40.04
59971;BME280;45825;45.434;9.116;2022-07-23T06:19:21;100270.59;;;29.75;40.16
59971;BME280;45825;45.434;9.116;2022-07-23T06:21:46;100264.50;;;29.80;39.96
59971;BME280;45825;45.434;9.116;2022-07-23T06:24:11;100261.53;;;29.95;39.55
59971;BME280;45825;45.434;9.116;2022-07-23T06:26:37;100262.38;;;29.95;39.65
59971;BME280;45825;45.434;9.116;2022-07-23T06:29:02;100256.75;;;29.97;39.70
59971;BME280;45825;45.434;9.116;2022-07-23T06:31:27;100263.81;;;30.11;39.01
59971;BME280;45825;45.434;9.116;2022-07-23T06:33:53;100265.03;;;30.16;38.96
59971;BME280;45825;45.434;9.116;2022-07-23T06:36:18;100258.38;;;30.18;38.38
59971;BME280;45825;45.434;9.116;2022-07-23T06:38:43;100258.56;;;30.17;38.42
59971;BME280;45825;45.434;9.116;2022-07-23T06:41:09;100266.31;;;30.13;38.42
59971;BME280;45825;45.434;9.116;2022-07-23T06:43:34;100261.69;;;30.20;38.79
59971;BME280;45825;45.434;9.116;2022-07-23T06:46:02;100271.44;;;30.28;38.38
59971;BME280;45825;45.434;9.116;2022-07-23T06:48:28;100272.72;;;30.32;38.64
59971;BME280;45825;45.434;9.116;2022-07-23T06:50:54;100270.56;;;30.41;38.16
59971;BME280;45825;45.434;9.116;2022-07-23T06:56:26;100277.44;;;30.44;38.11
59971;BME280;45825;45.434;9.116;2022-07-23T06:58:51;100279.56;;;30.42;38.48
59971;BME280;45825;45.434;9.116;2022-07-23T07:01:17;100284.31;;;30.46;40.22
59971;BME280;45825;45.434;9.116;2022-07-23T07:03:42;100281.81;;;30.45;39.63
59971;BME280;45825;45.434;9.116;2022-07-23T07:06:07;100283.69;;;30.44;40.55
59971;BME280;45825;45.434;9.116;2022-07-23T07:08:33;100291.59;;;30.52;39.37
59971;BME280;45825;45.434;9.116;2022-07-23T07:10:58;100285.31;;;30.59;39.31
59971;BME280;45825;45.434;9.116;2022-07-23T07:13:23;100285.09;;;30.53;39.71
59971;BME280;45825;45.434;9.116;2022-07-23T07:15:49;100291.78;;;30.64;39.67
59971;BME280;45825;45.434;9.116;2022-07-23T07:18:14;100294.47;;;30.64;39.89
59971;BME280;45825;45.434;9.116;2022-07-23T07:20:39;100296.94;;;30.73;40.65
59971;BME280;45825;45.434;9.116;2022-07-23T07:23:05;100297.19;;;30.64;40.80
59971;BME280;45825;45.434;9.116;2022-07-23T07:25:30;100300.09;;;30.63;41.15
59971;BME280;45825;45.434;9.116;2022-07-23T07:27:55;100297.09;;;30.39;41.26
59971;BME280;45825;45.434;9.116;2022-07-23T07:30:21;100292.47;;;30.46;41.32
59971;BME280;45825;45.434;9.116;2022-07-23T07:32:46;100302.69;;;30.51;42.24
59971;BME280;45825;45.434;9.116;2022-07-23T07:35:12;100289.81;;;30.33;43.14
59971;BME280;45825;45.434;9.116;2022-07-23T07:37:37;100298.88;;;30.06;43.63
59971;BME280;45825;45.434;9.116;2022-07-23T07:40:03;100298.19;;;30.18;43.36
59971;BME280;45825;45.434;9.116;2022-07-23T07:42:28;100300.31;;;30.16;43.93
59971;BME280;45825;45.434;9.116;2022-07-23T07:44:54;100298.19;;;30.18;43.83
59971;BME280;45825;45.434;9.116;2022-07-23T07:47:19;100289.88;;;30.19;43.83
59971;BME280;45825;45.434;9.116;2022-07-23T07:49:44;100307.13;;;30.32;44.11
59971;BME280;45825;45.434;9.116;2022-07-23T07:52:10;100299.41;;;30.35;44.33
59971;BME280;45825;45.434;9.116;2022-07-23T07:54:37;100303.00;;;30.29;44.66
59971;BME280;45825;45.434;9.116;2022-07-23T07:57:02;100305.06;;;30.27;45.03
59971;BME280;45825;45.434;9.116;2022-07-23T07:59:28;100305.16;;;30.07;48.04
59971;BME280;45825;45.434;9.116;2022-07-23T08:01:53;100312.63;;;30.18;46.49
59971;BME280;45825;45.434;9.116;2022-07-23T08:04:19;100317.16;;;30.31;45.44
59971;BME280;45825;45.434;9.116;2022-07-23T08:06:44;100313.81;;;30.36;46.69
59971;BME280;45825;45.434;9.116;2022-07-23T08:09:10;100321.19;;;30.15;47.54
59971;BME280;45825;45.434;9.116;2022-07-23T08:11:35;100322.88;;;30.09;48.25
59971;BME280;45825;45.434;9.116;2022-07-23T08:14:00;100326.41;;;30.03;48.45
59971;BME280;45825;45.434;9.116;2022-07-23T08:16:26;100325.38;;;30.04;48.18
59971;BME280;45825;45.434;9.116;2022-07-23T08:18:51;100321.19;;;29.95;48.66
59971;BME280;45825;45.434;9.116;2022-07-23T08:21:16;100326.41;;;30.03;49.21
59971;BME280;45825;45.434;9.116;2022-07-23T08:23:42;100326.00;;;30.06;49.77
59971;BME280;45825;45.434;9.116;2022-07-23T08:26:07;100322.63;;;30.24;50.01
59971;BME280;45825;45.434;9.116;2022-07-23T08:28:32;100326.78;;;30.20;49.86
59971;BME280;45825;45.434;9.116;2022-07-23T08:30:59;100330.97;;;30.16;49.54
59971;BME280;45825;45.434;9.116;2022-07-23T08:33:24;100326.78;;;30.20;49.45
59971;BME280;45825;45.434;9.116;2022-07-23T08:35:51;100334.63;;;30.42;50.41
59971;BME280;45825;45.434;9.116;2022-07-23T08:38:20;100320.94;;;30.30;51.98
59971;BME280;45825;45.434;9.116;2022-07-23T08:40:53;100325.06;;;30.33;51.81
59971;BME280;45825;45.434;9.116;2022-07-23T08:43:21;100324.22;;;30.39;51.52
59971;BME280;45825;45.434;9.116;2022-07-23T08:45:49;100313.84;;;30.29;52.05
59971;BME280;45825;45.434;9.116;2022-07-23T08:48:19;100316.91;;;30.39;51.92
59971;BME280;45825;45.434;9.116;2022-07-23T08:50:46;100311.03;;;30.49;51.49
59971;BME280;45825;45.434;9.116;2022-07-23T08:53:12;100311.63;;;30.51;51.46
59971;BME280;45825;45.434;9.116;2022-07-23T08:55:38;100328.94;;;30.57;51.92
59971;BME280;45825;45.434;9.116;2022-07-23T08:58:03;100315.97;;;30.59;51.11
59971;BME280;45825;45.434;9.116;2022-07-23T09:00:29;100323.72;;;30.56;51.22
59971;BME280;45825;45.434;9.116;2022-07-23T09:02:54;100318.69;;;30.66;50.97
59971;BME280;45825;45.434;9.116;2022-07-23T09:05:20;100319.22;;;30.82;50.72
59971;BME280;45825;45.434;9.116;2022-07-23T09:11:00;100329.84;;;30.90;50.72
59971;BME280;45825;45.434;9.116;2022-07-23T09:13:45;100313.22;;;31.05;50.49
59971;BME280;45825;45.434;9.116;2022-07-23T09:16:14;100314.19;;;31.43;50.07
59971;BME280;45825;45.434;9.116;2022-07-23T09:21:12;100310.44;;;31.44;50.04
59971;BME280;45825;45.434;9.116;2022-07-23T09:23:54;100308.31;;;31.46;50.41
59971;BME280;45825;45.434;9.116;2022-07-23T09:36:48;100309.13;;;31.72;49.87
59971;BME280;45825;45.434;9.116;2022-07-23T09:39:16;100305.28;;;31.80;49.29
59971;BME280;45825;45.434;9.116;2022-07-23T09:41:47;100302.63;;;31.54;50.35
59971;BME280;45825;45.434;9.116;2022-07-23T09:44:18;100301.63;;;31.67;50.38
59971;BME280;45825;45.434;9.116;2022-07-23T09:46:46;100304.41;;;31.86;50.13
59971;BME280;45825;45.434;9.116;2022-07-23T09:49:17;100294.81;;;32.02;49.74
59971;BME280;45825;45.434;9.116;2022-07-23T09:51:53;100299.41;;;32.01;49.50
59971;BME280;45825;45.434;9.116;2022-07-23T09:54:27;100296.34;;;31.98;49.63
59971;BME280;45825;45.434;9.116;2022-07-23T09:56:54;100292.97;;;32.14;49.33
59971;BME280;45825;45.434;9.116;2022-07-23T09:59:28;100293.66;;;32.28;49.65
59971;BME280;45825;45.434;9.116;2022-07-23T10:01:56;100293.19;;;32.31;49.27
59971;BME280;45825;45.434;9.116;2022-07-23T10:04:24;100287.25;;;32.04;49.78
59971;BME280;45825;45.434;9.116;2022-07-23T10:06:55;100295.53;;;32.28;49.33
59971;BME280;45825;45.434;9.116;2022-07-23T10:09:32;100288.56;;;32.51;48.87
59971;BME280;45825;45.434;9.116;2022-07-23T10:12:02;100290.56;;;32.25;49.53
59971;BME280;45825;45.434;9.116;2022-07-23T10:14:40;100288.53;;;32.20;50.05
59971;BME280;45825;45.434;9.116;2022-07-23T10:17:06;100279.97;;;32.35;49.64
59971;BME280;45825;45.434;9.116;2022-07-23T10:19:32;100282.91;;;32.33;50.06
59971;BME280;45825;45.434;9.116;2022-07-23T10:22:06;100284.81;;;32.52;49.95
59971;BME280;45825;45.434;9.116;2022-07-23T10:27:54;100268.41;;;33.25;48.68
59971;BME280;45825;45.434;9.116;2022-07-23T10:36:09;100264.03;;;34.12;46.24
59971;BME280;45825;45.434;9.116;2022-07-23T10:38:47;100268.63;;;34.24;45.91
59971;BME280;45825;45.434;9.116;2022-07-23T10:41:15;100251.25;;;34.13;46.08
59971;BME280;45825;45.434;9.116;2022-07-23T10:44:13;100252.22;;;34.36;45.60
59971;BME280;45825;45.434;9.116;2022-07-23T10:46:59;100258.44;;;34.19;45.52
59971;BME280;45825;45.434;9.116;2022-07-23T10:49:44;100253.53;;;34.04;45.76
59971;BME280;45825;45.434;9.116;2022-07-23T10:54:39;100236.53;;;34.14;46.10
59971;BME280;45825;45.434;9.116;2022-07-23T10:59:31;100237.78;;;34.23;44.81
59971;BME280;45825;45.434;9.116;2022-07-23T11:02:22;100241.13;;;34.72;44.46
59971;BME280;45825;45.434;9.116;2022-07-23T11:04:49;100234.38;;;34.45;44.99
59971;BME280;45825;45.434;9.116;2022-07-23T11:07:16;100232.56;;;34.51;44.95
59971;BME280;45825;45.434;9.116;2022-07-23T11:09:43;100231.84;;;34.26;44.92
59971;BME280;45825;45.434;9.116;2022-07-23T11:17:34;100219.38;;;34.31;44.84
59971;BME280;45825;45.434;9.116;2022-07-23T11:25:46;100218.44;;;34.71;44.20
59971;BME280;45825;45.434;9.116;2022-07-23T11:28:10;100211.50;;;34.80;44.02
59971;BME280;45825;45.434;9.116;2022-07-23T11:30:46;100209.03;;;34.96;44.00
59971;BME280;45825;45.434;9.116;2022-07-23T11:35:46;100201.25;;;35.05;43.06
59971;BME280;45825;45.434;9.116;2022-07-23T11:38:19;100203.31;;;35.15;42.78
59971;BME280;45825;45.434;9.116;2022-07-23T11:40:53;100201.47;;;35.03;43.03
59971;BME280;45825;45.434;9.116;2022-07-23T11:43:20;100197.50;;;35.11;42.92
59971;BME280;45825;45.434;9.116;2022-07-23T11:45:48;100199.94;;;35.07;43.17
59971;BME280;45825;45.434;9.116;2022-07-23T11:48:19;100187.41;;;34.94;43.04
59971;BME280;45825;45.434;9.116;2022-07-23T11:50:44;100199.44;;;35.33;42.31
59971;BME280;45825;45.434;9.116;2022-07-23T11:53:09;100181.34;;;35.49;41.86
59971;BME280;45825;45.434;9.116;2022-07-23T11:55:35;100184.09;;;35.93;40.85
59971;BME280;45825;45.434;9.116;2022-07-23T11:58:00;100181.09;;;35.95;40.62
59971;BME280;45825;45.434;9.116;2022-07-23T12:00:28;100178.88;;;35.92;40.95
59971;BME280;45825;45.434;9.116;2022-07-23T12:03:00;100176.59;;;36.06;40.71
59971;BME280;45825;45.434;9.116;2022-07-23T12:05:29;100174.53;;;36.18;41.08
59971;BME280;45825;45.434;9.116;2022-07-23T12:07:56;100164.53;;;36.67;39.89
59971;BME280;45825;45.434;9.116;2022-07-23T12:10:30;100162.84;;;36.99;39.06
59971;BME280;45825;45.434;9.116;2022-07-23T12:13:01;100157.69;;;37.02;38.80
59971;BME280;45825;45.434;9.116;2022-07-23T12:15:38;100161.31;;;37.13;38.46
59971;BME280;45825;45.434;9.116;2022-07-23T12:18:07;100167.34;;;37.10;38.67
59971;BME280;45825;45.434;9.116;2022-07-23T12:20:44;100162.31;;;37.02;38.13
59971;BME280;45825;45.434;9.116;2022-07-23T12:23:12;100165.03;;;36.97;38.24
59971;BME280;45825;45.434;9.116;2022-07-23T12:25:40;100165.44;;;36.45;39.13
59971;BME280;45825;45.434;9.116;2022-07-23T12:28:16;100161.16;;;35.72;40.04
59971;BME280;45825;45.434;9.116;2022-07-23T12:30:50;100162.47;;;35.70;40.89
59971;BME280;45825;45.434;9.116;2022-07-23T12:33:30;100155.41;;;35.51;41.16
59971;BME280;45825;45.434;9.116;2022-07-23T12:35:58;100152.78;;;35.57;41.30
59971;BME280;45825;45.434;9.116;2022-07-23T12:38:25;100142.19;;;35.88;40.59
59971;BME280;45825;45.434;9.116;2022-07-23T12:40:56;100142.56;;;36.24;40.28
59971;BME280;45825;45.434;9.116;2022-07-23T12:43:25;100141.66;;;36.51;38.38
59971;BME280;45825;45.434;9.116;2022-07-23T12:46:02;100140.91;;;36.56;37.89
59971;BME280;45825;45.434;9.116;2022-07-23T12:48:30;100144.50;;;36.56;38.13
59971;BME280;45825;45.434;9.116;2022-07-23T12:51:13;100136.28;;;36.56;38.64
59971;BME280;45825;45.434;9.116;2022-07-23T12:53:42;100140.72;;;36.68;38.58
59971;BME280;45825;45.434;9.116;2022-07-23T12:56:12;100142.69;;;36.77;38.21
59971;BME280;45825;45.434;9.116;2022-07-23T12:58:48;100151.44;;;36.69;38.82
59971;BME280;45825;45.434;9.116;2022-07-23T13:06:20;100144.94;;;36.15;39.53
59971;BME280;45825;45.434;9.116;2022-07-23T13:08:45;100134.97;;;36.31;38.99
59971;BME280;45825;45.434;9.116;2022-07-23T13:11:10;100134.91;;;36.26;39.38
59971;BME280;45825;45.434;9.116;2022-07-23T13:13:35;100133.56;;;36.29;39.42
59971;BME280;45825;45.434;9.116;2022-07-23T13:16:01;100134.59;;;36.22;39.17
59971;BME280;45825;45.434;9.116;2022-07-23T13:18:27;100126.44;;;36.28;39.60
59971;BME280;45825;45.434;9.116;2022-07-23T13:20:53;100119.50;;;36.53;38.62
59971;BME280;45825;45.434;9.116;2022-07-23T13:23:19;100132.00;;;36.38;39.00
59971;BME280;45825;45.434;9.116;2022-07-23T13:25:45;100125.38;;;36.34;38.90
59971;BME280;45825;45.434;9.116;2022-07-23T13:28:11;100124.28;;;36.35;38.89
59971;BME280;45825;45.434;9.116;2022-07-23T13:30:36;100119.00;;;36.56;38.18
59971;BME280;45825;45.434;9.116;2022-07-23T13:33:03;100112.84;;;36.43;38.51
59971;BME280;45825;45.434;9.116;2022-07-23T13:35:29;100114.88;;;36.53;38.74
59971;BME280;45825;45.434;9.116;2022-07-23T13:37:54;100116.34;;;36.66;38.63
59971;BME280;45825;45.434;9.116;2022-07-23T13:40:20;100110.91;;;36.71;38.26
59971;BME280;45825;45.434;9.116;2022-07-23T13:42:46;100116.06;;;36.68;38.46